Flight Track Log - Related Links

Times and Time Zones

All times are in EDT time to prevent confusion due to time zone crossing. See the N966QS flight status page for this flight to view local times or setup timezone preferences in your user account.

Time Position Orientation Groundspeed Altitude Reporting Facility
EDT Latitude Longitude Course Direction KTS MPH feet Rate Location/Type
Fri 11:03:44 AM 37.6500 -122.3333 38° Northeast 218 251 3,000  Level Northern Cal TRACON
Fri 11:04:44 AM 37.7167 -122.2667 38° Northeast 264 304 6,000 2,905 Climbing Northern Cal TRACON
Fri 11:05:50 AM 37.7667 -122.1833 53° Northeast 293 337 9,100 2,381 Climbing Northern Cal TRACON
Fri 11:06:50 AM 37.8500 -122.1167 32° Northeast 321 369 11,000 1,644 Climbing Northern Cal TRACON
Fri 11:08:16 AM 37.9631 -122.0108 36° Northeast 375 432 13,100 1,500 Climbing Oakland Center
Fri 11:09:00 AM 37.8773 -122.1060 38° Northeast  Level FlightAware Approximate
Fri 11:09:18 AM 38.0506 -121.9283 37° Northeast 388 447 14,700  Level Oakland Center
Fri 11:10:19 AM 38.1411 -121.8414 37° Northeast 404 465 16,200 1,377 Climbing Oakland Center
Fri 11:11:20 AM 38.2339 -121.7531 37° Northeast 416 479 17,500 1,366 Climbing Oakland Center
Fri 11:12:22 AM 38.3286 -121.6617 37° Northeast 426 490 19,000 1,463 Climbing Oakland Center
Fri 11:13:23 AM 38.4308 -121.5619 37° Northeast 438 504 20,500 1,171 Climbing Oakland Center
Fri 11:14:25 AM 38.5067 -121.4450 50° Northeast 450 518 21,400 1,171 Climbing Oakland Center
Fri 11:15:26 AM 38.5992 -121.2814 54° Northeast 470 541 22,900 1,525 Climbing Oakland Center
Fri 11:16:27 AM 38.6869 -121.1522 49° Northeast 488 562 24,500 1,415 Climbing Oakland Center
Fri 11:17:29 AM 38.7956 -121.0658 32° Northeast 487 560 25,800 1,268 Climbing Oakland Center
Fri 11:18:30 AM 38.9147 -120.9778 30° Northeast 492 566 27,100 1,317 Climbing Oakland Center
Fri 11:19:32 AM 39.0372 -120.8881 30° Northeast 501 577 28,500 1,317 Climbing Oakland Center
Fri 11:20:33 AM 39.1611 -120.7944 30° Northeast 510 587 29,800 1,426 Climbing Oakland Center
Fri 11:21:34 AM 39.2878 -120.6992 30° Northeast 522 601 31,400 2,098 Climbing Oakland Center
Fri 11:22:36 AM 39.4375 -120.5864 30° Northeast 520 598 34,100 2,390 Climbing Oakland Center
Fri 11:23:37 AM 39.5525 -120.4736 37° Northeast 526 605 36,300 2,098 Climbing Oakland Center
Fri 11:24:39 AM 39.6622 -120.3550 40° Northeast 518 596 38,400 1,902 Climbing Oakland Center
Fri 11:25:40 AM 39.7792 -120.2533 34° Northeast 506 582 40,200 1,279 Climbing Oakland Center
Fri 11:26:41 AM 39.9025 -120.1575 31° Northeast 513 590 41,000 390 Climbing Oakland Center
Fri 11:27:43 AM 40.0272 -120.0636 30° Northeast 532 612 41,000  Level Oakland Center
Fri 11:28:44 AM 40.1583 -119.9633 30° Northeast 542 624 41,000  Level Oakland Center
Fri 11:29:46 AM 40.3150 -119.8439 30° Northeast 547 629 41,000  Level Oakland Center
Fri 11:30:47 AM 40.4450 -119.7433 30° Northeast 544 626 41,000  Level Oakland Center
Fri 11:31:49 AM 40.5514 -119.6628 30° Northeast 535 616 41,000  Level Oakland Center
Fri 11:32:50 AM 40.6769 -119.5656 30° Northeast 528 608 41,000  Level Oakland Center
Fri 11:33:52 AM 40.8189 -119.4553 30° Northeast 532 612 41,000  Level Oakland Center
Fri 11:34:53 AM 40.9622 -119.3411 31° Northeast 535 616 41,000  Level Oakland Center
Fri 11:35:55 AM 41.0842 -119.2453 31° Northeast 533 613 41,000  Level Oakland Center
Fri 11:36:42 AM 41.1875 -119.1678 29° Northeast 535 616 41,000  Level Salt Lake Center
Fri 11:37:44 AM 41.3094 -119.0697 31° Northeast 534 615 41,000  Level Salt Lake Center
Fri 11:38:46 AM 41.4528 -118.9572 30° Northeast 535 616 41,000  Level Salt Lake Center
Fri 11:39:48 AM 41.5744 -118.8589 31° Northeast 533 613 41,000  Level Salt Lake Center
Fri 11:40:50 AM 41.7175 -118.7436 31° Northeast 534 615 41,000  Level Salt Lake Center
Fri 11:41:52 AM 41.8400 -118.6453 31° Northeast 536 617 41,000  Level Salt Lake Center
Fri 11:42:54 AM 41.9825 -118.5303 31° Northeast 536 617 41,000  Level Salt Lake Center
Fri 11:43:56 AM 42.1047 -118.4300 31° Northeast 534 615 41,000  Level Salt Lake Center
Fri 11:44:59 AM 42.2469 -118.3111 32° Northeast 536 617 41,000  Level Salt Lake Center
Fri 11:46:01 AM 42.3692 -118.2119 31° Northeast 536 617 41,000  Level Salt Lake Center
Fri 11:47:03 AM 42.5069 -118.0928 33° Northeast 540 621 41,000  Level Salt Lake Center
Fri 11:48:05 AM 42.6289 -117.9931 31° Northeast 535 616 41,000  Level Salt Lake Center
Fri 11:49:07 AM 42.7719 -117.8744 31° Northeast 537 618 41,000  Level Salt Lake Center
Fri 11:50:09 AM 42.8947 -117.7708 32° Northeast 540 621 41,000  Level Salt Lake Center
Fri 11:51:11 AM 43.0372 -117.6503 32° Northeast 539 620 41,000  Level Salt Lake Center
Fri 11:52:13 AM 43.1597 -117.5467 32° Northeast 538 619 41,000  Level Salt Lake Center
Fri 11:53:15 AM 43.3033 -117.4250 32° Northeast 542 624 41,000  Level Salt Lake Center
Fri 11:54:17 AM 43.4253 -117.3200 32° Northeast 541 623 41,000  Level Salt Lake Center
Fri 11:55:19 AM 43.5681 -117.1983 32° Northeast 540 621 41,000  Level Salt Lake Center
Fri 11:56:21 AM 43.6903 -117.0925 32° Northeast 541 623 41,000  Level Salt Lake Center
Fri 11:57:23 AM 43.8122 -116.9875 32° Northeast 539 620 41,000  Level Salt Lake Center
Fri 11:58:25 AM 43.9539 -116.8642 32° Northeast 538 619 41,000  Level Salt Lake Center
Fri 11:59:27 AM 44.0753 -116.7567 32° Northeast 539 620 41,000  Level Salt Lake Center
Fri 12:00:29 PM 44.2153 -116.6317 33° Northeast 534 615 41,000  Level Salt Lake Center
Fri 12:01:31 PM 44.3367 -116.5239 32° Northeast 536 617 41,000  Level Salt Lake Center
Fri 12:02:33 PM 44.4800 -116.3994 32° Northeast 536 617 41,000  Level Salt Lake Center
Fri 12:03:35 PM 44.6042 -116.2878 33° Northeast 541 623 41,000  Level Salt Lake Center
Fri 12:04:37 PM 44.7261 -116.1767 33° Northeast 539 620 41,000  Level Salt Lake Center
Fri 12:05:40 PM 44.8667 -116.0486 33° Northeast 535 616 41,000  Level Salt Lake Center
Fri 12:06:42 PM 44.9858 -115.9389 33° Northeast 535 616 41,000  Level Salt Lake Center
Fri 12:07:51 PM 45.1258 -115.8106 33° Northeast 536 617 41,000  Level Seattle Center
Fri 12:08:52 PM 45.2653 -115.6825 33° Northeast 535 616 41,000 -1,279 Level Seattle Center
Fri 12:09:53 PM 45.3853 -115.5697 33° Northeast 538 619 38,400 -1,951 Descending Seattle Center
Fri 12:10:55 PM 45.5272 -115.4358 33° Northeast 547 629 37,000 -683 Descending Seattle Center
Fri 12:11:56 PM 45.6511 -115.3186 33° Northeast 554 638 37,000  Level Seattle Center
Fri 12:12:57 PM 45.7753 -115.2025 33° Northeast 555 639 37,000 -1,082 Level Seattle Center
Fri 12:13:58 PM 45.9036 -115.0803 34° Northeast 550 633 34,800 -2,927 Descending Seattle Center
Fri 12:15:00 PM 46.0300 -114.9583 34° Northeast 550 633 31,000 -4,341 Descending Seattle Center
Fri 12:16:01 PM 46.1656 -114.8292 33° Northeast 539 620 25,900 -4,770 Descending Seattle Center
Fri 12:17:02 PM 46.2842 -114.7156 33° Northeast 518 596 21,300 -4,279 Descending Seattle Center
Fri 12:18:03 PM 46.3944 -114.6064 34° Northeast 486 559 17,200 -3,463 Descending Seattle Center
Fri 12:19:05 PM 46.4992 -114.5028 34° Northeast 462 532 14,200 -2,585 Descending Seattle Center
Fri 12:20:06 PM 46.5986 -114.4044 34° Northeast 444 511 11,900 -1,082 Descending Seattle Center
Fri 12:21:07 PM 46.6883 -114.3158 34° Northeast 409 471 12,000 -585 Climbing Seattle Center
Fri 12:22:09 PM 46.7708 -114.2233 38° Northeast 342 394 10,700 -1,805 Descending Seattle Center
Fri 12:23:10 PM 46.8200 -114.1236 54° Northeast 315 362 8,300 -2,115 Descending Seattle Center
Fri 12:24:11 PM 46.8286 -114.0383 82° East 261 300 6,400 -1,780 Descending Seattle Center
Fri 12:24:41 PM 46.8478 -114.0208 32° Northeast 163 188 5,600 -1,500 Descending Salt Lake Center
Fri 12:25:43 PM 46.8864 -114.0406 341° North 145 167 4,100 -1,161 Descending Salt Lake Center
Fri 12:26:45 PM 46.9114 -114.0839 310° West 142 163 3,200 -871 Descending Salt Lake Center
Fri 12:28:00 PM 46.9000 -114.0833 34° Northeast  Level FlightAware Approximate

Login

Don't have an account? Register now (free) for customized features, flight alerts, and more!